createdAt,value
2022-11-18T00:03:31.371Z,6.20
2022-11-18T00:08:34.181Z,6.20
2022-11-18T00:14:12.939Z,6.10
2022-11-18T00:19:15.614Z,6.10
2022-11-18T00:24:17.941Z,6.10
2022-11-18T00:29:20.526Z,6.10
2022-11-18T00:34:22.981Z,6.10
2022-11-18T00:39:26.111Z,6.00
2022-11-18T00:44:28.021Z,6.00
2022-11-18T00:49:29.924Z,6.00
2022-11-18T00:54:31.849Z,6.00
2022-11-18T00:59:33.684Z,6.00
2022-11-18T01:04:35.508Z,6.10
2022-11-18T01:09:37.407Z,6.10
2022-11-18T01:14:39.280Z,6.10
2022-11-18T01:19:41.128Z,6.10
2022-11-18T01:24:43.066Z,6.10
2022-11-18T01:29:59.163Z,6.10
2022-11-18T01:35:00.990Z,6.10
2022-11-18T01:40:04.847Z,6.00
2022-11-18T01:45:10.002Z,6.00
2022-11-18T01:50:13.433Z,6.00
2022-11-18T01:55:21.944Z,6.00
2022-11-18T02:00:23.991Z,5.90
2022-11-18T02:05:26.287Z,5.90
2022-11-18T02:10:28.143Z,5.80
2022-11-18T02:15:46.187Z,5.80
2022-11-18T02:20:51.340Z,5.80
2022-11-18T02:26:06.247Z,5.80
2022-11-18T02:31:15.331Z,5.80
2022-11-18T02:36:37.423Z,5.90
2022-11-18T02:41:39.680Z,5.80
2022-11-18T02:46:44.408Z,5.90
2022-11-18T02:51:47.719Z,5.80
2022-11-18T02:56:51.074Z,5.90
2022-11-18T03:01:52.939Z,5.90
2022-11-18T03:07:12.984Z,5.90
2022-11-18T03:12:23.947Z,5.90
2022-11-18T03:17:47.685Z,5.90
2022-11-18T03:23:10.311Z,5.90
2022-11-18T03:28:14.840Z,5.90
2022-11-18T03:33:20.740Z,5.90
2022-11-18T03:38:30.048Z,5.90
2022-11-18T03:43:37.443Z,5.90
2022-11-18T03:48:45.363Z,5.90
2022-11-18T03:53:58.170Z,5.80
2022-11-18T03:59:02.956Z,5.80
2022-11-18T04:04:05.044Z,5.80
2022-11-18T04:09:15.230Z,5.80
2022-11-18T04:14:18.891Z,5.80
2022-11-18T04:19:20.976Z,5.90
2022-11-18T04:24:39.836Z,5.80
2022-11-18T04:29:41.756Z,5.80
2022-11-18T04:34:43.601Z,5.80
2022-11-18T04:39:45.470Z,5.80
2022-11-18T04:44:47.448Z,5.70
2022-11-18T04:49:49.339Z,5.70
2022-11-18T04:54:51.265Z,5.70
2022-11-18T04:59:53.132Z,5.70
2022-11-18T05:04:57.785Z,5.70
2022-11-18T05:09:59.683Z,5.80
2022-11-18T05:15:01.589Z,5.80
2022-11-18T05:20:03.676Z,5.80
2022-11-18T05:25:06.316Z,5.80
2022-11-18T05:30:09.069Z,5.80
2022-11-18T05:35:11.095Z,5.80
2022-11-18T05:40:12.975Z,5.80
2022-11-18T05:45:16.073Z,5.80
2022-11-18T05:50:21.322Z,5.80
2022-11-18T05:55:42.550Z,5.80
2022-11-18T06:00:45.643Z,5.80
2022-11-18T06:05:48.682Z,5.80
2022-11-18T06:10:50.988Z,5.80
2022-11-18T06:15:52.996Z,5.80
2022-11-18T06:20:59.867Z,5.80
2022-11-18T06:26:03.346Z,5.80
2022-11-18T06:31:06.109Z,5.70
2022-11-18T06:36:08.644Z,5.70
2022-11-18T06:41:11.652Z,5.70
2022-11-18T06:46:51.151Z,5.60
2022-11-18T06:51:53.123Z,5.60
2022-11-18T06:56:54.988Z,5.70
2022-11-18T07:01:57.132Z,5.70
2022-11-18T07:06:59.026Z,5.80
2022-11-18T07:12:01.051Z,5.80
2022-11-18T07:17:02.899Z,5.80
2022-11-18T07:22:04.880Z,5.90
2022-11-18T07:27:06.738Z,5.90
2022-11-18T07:32:09.245Z,5.90
2022-11-18T07:37:19.589Z,6.00
2022-11-18T07:42:21.469Z,6.00
2022-11-18T07:47:23.617Z,6.10
2022-11-18T07:52:25.682Z,6.10
2022-11-18T07:57:28.374Z,6.00
2022-11-18T08:02:30.373Z,6.00
2022-11-18T08:07:32.455Z,6.00
2022-11-18T08:12:34.328Z,6.10
2022-11-18T08:17:36.171Z,6.10
2022-11-18T08:22:38.028Z,6.10
2022-11-18T08:27:40.113Z,6.20
2022-11-18T08:32:42.134Z,6.30
2022-11-18T08:37:44.172Z,6.30
2022-11-18T08:42:46.171Z,6.30
2022-11-18T08:47:51.664Z,6.40
2022-11-18T08:52:53.608Z,6.40
2022-11-18T08:57:55.480Z,6.50
2022-11-18T09:02:57.346Z,6.60
2022-11-18T09:07:59.204Z,6.60
2022-11-18T09:13:24.905Z,6.70
2022-11-18T09:18:23.196Z,6.70
2022-11-18T09:23:25.264Z,6.80
2022-11-18T09:28:27.412Z,6.80
2022-11-18T09:33:29.352Z,6.80
2022-11-18T09:38:31.899Z,6.90
2022-11-18T09:44:11.508Z,6.80
2022-11-18T09:49:30.774Z,6.80
2022-11-18T09:54:36.309Z,6.70
2022-11-18T09:59:41.774Z,6.70
2022-11-18T10:04:48.327Z,6.70
2022-11-18T10:09:52.263Z,6.70
2022-11-18T10:15:05.490Z,6.70
2022-11-18T10:20:22.151Z,6.60
2022-11-18T10:25:25.959Z,6.60
2022-11-18T10:30:28.982Z,6.60
2022-11-18T10:35:38.923Z,6.50
2022-11-18T10:40:46.873Z,6.60
2022-11-18T10:45:49.552Z,6.50
2022-11-18T10:50:55.983Z,6.50
2022-11-18T10:56:10.055Z,6.40
2022-11-18T11:01:25.092Z,6.40
2022-11-18T11:06:28.016Z,6.40
2022-11-18T11:11:46.118Z,6.40
2022-11-18T11:16:55.465Z,6.40
2022-11-18T11:21:57.629Z,6.30
2022-11-18T11:33:10.192Z,6.40
2022-11-18T11:38:40.604Z,6.30
2022-11-18T11:43:51.748Z,6.20
2022-11-18T11:49:00.134Z,6.10
2022-11-18T11:54:09.220Z,6.00
2022-11-18T11:59:24.287Z,6.10
2022-11-18T12:04:32.038Z,6.00
2022-11-18T12:09:33.854Z,6.00
2022-11-18T12:14:40.718Z,6.00
2022-11-18T12:19:42.570Z,6.00
2022-11-18T12:24:44.564Z,6.00
2022-11-18T12:29:49.464Z,5.90
2022-11-18T12:35:20.652Z,5.90
2022-11-18T12:40:51.846Z,5.80
2022-11-18T12:45:57.093Z,5.80
2022-11-18T12:51:11.679Z,5.80
2022-11-18T12:56:23.042Z,5.70
2022-11-18T13:01:27.144Z,5.70
2022-11-18T13:06:32.599Z,5.80
2022-11-18T13:11:54.402Z,5.70
2022-11-18T13:17:14.873Z,5.70
2022-11-18T13:22:36.886Z,5.70
2022-11-18T13:27:48.191Z,5.70
2022-11-18T13:32:52.558Z,5.70
2022-11-18T13:38:01.838Z,5.60
2022-11-18T13:43:04.548Z,5.60
2022-11-18T13:48:10.207Z,5.60
2022-11-18T13:53:32.586Z,5.60
2022-11-18T14:04:15.902Z,5.40
2022-11-18T14:09:28.710Z,5.30
2022-11-18T14:14:38.604Z,5.30
2022-11-18T14:19:40.756Z,5.20
2022-11-18T14:24:43.163Z,5.20
2022-11-18T14:29:51.346Z,5.10
2022-11-18T14:35:00.122Z,5.00
2022-11-18T14:40:02.223Z,4.70
2022-11-18T14:45:04.968Z,4.50
2022-11-18T14:50:14.649Z,4.40
2022-11-18T14:55:22.469Z,4.20
2022-11-18T15:00:24.556Z,4.20
2022-11-18T15:05:26.396Z,4.20
2022-11-18T15:10:28.359Z,4.10
2022-11-18T15:15:30.243Z,4.00
2022-11-18T15:20:32.196Z,4.00
2022-11-18T15:25:34.104Z,3.90
2022-11-18T15:30:36.328Z,3.80
2022-11-18T15:35:38.201Z,3.70
2022-11-18T15:40:40.648Z,3.60
2022-11-18T15:45:42.564Z,3.60
2022-11-18T15:50:44.463Z,3.60
2022-11-18T15:55:47.837Z,3.60
2022-11-18T16:00:49.875Z,3.50
2022-11-18T16:05:52.542Z,3.50
2022-11-18T16:11:18.974Z,3.50
2022-11-18T16:16:22.186Z,3.40
2022-11-18T16:21:27.078Z,3.40
2022-11-18T16:26:32.794Z,3.30
2022-11-18T16:31:41.223Z,3.30
2022-11-18T16:36:48.860Z,3.30
2022-11-18T16:41:54.542Z,3.20
2022-11-18T16:46:57.573Z,3.20
2022-11-18T16:51:59.630Z,3.00
2022-11-18T16:57:01.460Z,3.00
2022-11-18T17:02:05.943Z,2.90
2022-11-18T17:07:13.300Z,2.90
2022-11-18T17:12:16.348Z,2.90
2022-11-18T17:17:18.151Z,2.80
2022-11-18T17:22:20.482Z,2.80
2022-11-18T17:27:22.384Z,2.80
2022-11-18T17:32:24.892Z,2.70
2022-11-18T17:37:30.086Z,2.70
2022-11-18T17:42:32.047Z,2.70
2022-11-18T17:47:34.152Z,2.70
2022-11-18T17:52:42.250Z,2.60
2022-11-18T17:57:44.740Z,2.60
2022-11-18T18:02:46.772Z,2.60
2022-11-18T18:07:51.390Z,2.60
2022-11-18T18:13:11.843Z,2.60
2022-11-18T18:18:21.260Z,2.50
2022-11-18T18:23:23.147Z,2.50
2022-11-18T18:28:24.971Z,2.40
2022-11-18T18:33:33.264Z,2.40
2022-11-18T18:38:39.554Z,2.40
2022-11-18T18:43:41.932Z,2.30
2022-11-18T18:48:44.077Z,2.30
2022-11-18T18:53:46.830Z,2.30
2022-11-18T18:58:48.766Z,2.30
2022-11-18T19:03:59.929Z,2.20
2022-11-18T19:09:05.680Z,2.20
2022-11-18T19:14:19.530Z,2.10
2022-11-18T19:19:43.160Z,2.10
2022-11-18T19:24:50.995Z,2.10
2022-11-18T19:29:53.388Z,2.10
2022-11-18T19:34:56.280Z,2.10
2022-11-18T19:40:05.668Z,2.00
2022-11-18T19:45:11.604Z,2.10
2022-11-18T19:50:14.351Z,2.00
2022-11-18T19:55:16.463Z,2.10
2022-11-18T20:00:18.901Z,2.10
2022-11-18T20:05:43.344Z,1.90
2022-11-18T20:10:50.214Z,2.00
2022-11-18T20:16:09.213Z,2.00
2022-11-18T20:21:23.729Z,2.00
2022-11-18T20:26:37.503Z,2.00
2022-11-18T20:31:39.827Z,2.10
2022-11-18T20:36:42.070Z,2.10
2022-11-18T20:42:04.707Z,2.00
2022-11-18T20:47:06.751Z,2.00
2022-11-18T20:52:08.665Z,1.90
2022-11-18T20:57:13.838Z,1.90
2022-11-18T21:02:15.683Z,1.90
2022-11-18T21:07:17.649Z,1.90
2022-11-18T21:12:19.640Z,1.90
2022-11-18T21:17:55.716Z,1.90
2022-11-18T21:22:57.672Z,1.90
2022-11-18T21:28:02.105Z,1.90
2022-11-18T21:33:04.436Z,1.80
2022-11-18T21:38:06.363Z,1.80
2022-11-18T21:43:08.294Z,1.80
2022-11-18T21:48:10.270Z,1.80
2022-11-18T21:53:12.176Z,1.80
2022-11-18T21:58:14.035Z,1.80
2022-11-18T22:03:15.839Z,1.70
2022-11-18T22:08:17.943Z,1.80
2022-11-18T22:13:19.799Z,1.80
2022-11-18T22:18:21.619Z,1.80
2022-11-18T22:23:23.467Z,1.80
2022-11-18T22:28:26.076Z,1.80
2022-11-18T22:33:27.911Z,1.80
2022-11-18T22:38:30.338Z,1.80
2022-11-18T22:43:33.782Z,1.80
2022-11-18T22:48:36.069Z,1.70
2022-11-18T22:53:37.986Z,1.70
2022-11-18T22:58:44.296Z,1.70
2022-11-18T23:03:50.928Z,1.70
2022-11-18T23:08:52.864Z,1.60
2022-11-18T23:14:03.908Z,1.60
2022-11-18T23:19:10.973Z,1.60
2022-11-18T23:24:19.388Z,1.60
2022-11-18T23:29:21.728Z,1.60
2022-11-18T23:34:24.081Z,1.60
2022-11-18T23:39:25.898Z,1.60
2022-11-18T23:44:46.451Z,1.50
2022-11-18T23:49:48.427Z,1.50
2022-11-18T23:54:52.065Z,1.50
2022-11-18T23:59:53.884Z,1.50
